createdAt,value
2023-03-12T00:23:44.601Z,90.10
2023-03-12T00:29:08.308Z,90.30
2023-03-12T00:34:31.613Z,90.00
2023-03-12T00:39:56.266Z,88.20
2023-03-12T00:45:19.344Z,89.20
2023-03-12T00:50:42.538Z,89.60
2023-03-12T00:56:08.229Z,89.30
2023-03-12T01:01:31.281Z,88.50
2023-03-12T01:06:55.842Z,89.40
2023-03-12T01:12:20.681Z,89.90
2023-03-12T01:17:44.088Z,89.90
2023-03-12T01:23:07.822Z,89.60
2023-03-12T01:28:32.343Z,88.80
2023-03-12T01:33:55.695Z,89.80
2023-03-12T01:39:19.087Z,89.10
2023-03-12T01:44:58.586Z,88.70
2023-03-12T01:50:22.154Z,88.50
2023-03-12T01:55:45.355Z,89.20
2023-03-12T02:01:10.151Z,89.40
2023-03-12T02:06:41.273Z,89.80
2023-03-12T02:12:05.151Z,89.50
2023-03-12T02:17:32.159Z,90.20
2023-03-12T02:23:05.827Z,89.90
2023-03-12T02:28:34.225Z,90.40
2023-03-12T02:33:59.986Z,90.00
2023-03-12T02:39:23.053Z,89.30
2023-03-12T02:44:48.058Z,90.60
2023-03-12T02:50:12.422Z,90.30
2023-03-12T02:55:36.065Z,91.00
2023-03-12T03:01:01.096Z,90.70
2023-03-12T03:06:24.876Z,91.10
2023-03-12T03:11:48.279Z,91.00
2023-03-12T03:17:13.206Z,90.30
2023-03-12T03:22:36.861Z,90.20
2023-03-12T03:28:00.136Z,90.50
2023-03-12T03:33:25.301Z,90.40
2023-03-12T03:38:48.875Z,90.70
2023-03-12T03:44:13.739Z,90.70
2023-03-12T03:49:38.923Z,90.30
2023-03-12T03:55:02.333Z,87.00
2023-03-12T04:00:27.741Z,88.60
2023-03-12T04:05:58.760Z,87.50
2023-03-12T04:11:23.144Z,90.10
2023-03-12T04:16:46.553Z,87.50
2023-03-12T04:22:11.334Z,88.00
2023-03-12T04:27:35.716Z,88.90
2023-03-12T04:32:59.085Z,88.10
2023-03-12T04:38:26.396Z,88.50
2023-03-12T04:43:52.439Z,87.50
2023-03-12T04:49:16.804Z,87.10
2023-03-12T04:54:41.488Z,87.30
2023-03-12T05:00:06.970Z,87.60
2023-03-12T05:05:30.190Z,86.10
2023-03-12T05:10:55.691Z,86.70
2023-03-12T05:16:19.273Z,85.50
2023-03-12T05:21:42.896Z,86.00
2023-03-12T05:27:07.741Z,86.70
2023-03-12T05:32:31.218Z,88.20
2023-03-12T05:37:55.268Z,88.00
2023-03-12T05:43:21.523Z,87.70
2023-03-12T05:48:45.123Z,87.30
2023-03-12T05:54:08.798Z,82.70
2023-03-12T05:59:34.316Z,86.00
2023-03-12T06:04:58.253Z,86.30
2023-03-12T06:10:21.564Z,85.60
2023-03-12T06:15:45.974Z,87.20
2023-03-12T06:21:11.911Z,87.00
2023-03-12T06:26:35.739Z,84.10
2023-03-12T06:32:00.352Z,80.00
2023-03-12T06:37:23.381Z,82.00
2023-03-12T06:42:46.420Z,86.60
2023-03-12T06:48:10.985Z,86.10
2023-03-12T06:53:34.576Z,84.70
2023-03-12T06:58:57.886Z,85.90
2023-03-12T07:04:23.044Z,85.00
2023-03-12T07:09:46.087Z,80.60
2023-03-12T07:15:10.533Z,82.20
2023-03-12T07:20:38.683Z,80.20
2023-03-12T07:26:03.739Z,77.80
2023-03-12T07:31:27.311Z,78.80
2023-03-12T07:36:54.206Z,83.80
2023-03-12T07:42:17.561Z,83.40
2023-03-12T07:47:42.138Z,84.80
2023-03-12T07:53:07.261Z,81.60
2023-03-12T07:58:31.674Z,82.10
2023-03-12T08:03:55.214Z,81.60
2023-03-12T08:09:19.816Z,83.00
2023-03-12T08:14:42.965Z,79.10
2023-03-12T08:20:08.162Z,82.50
2023-03-12T08:25:32.933Z,81.40
2023-03-12T08:31:00.249Z,81.60
2023-03-12T08:36:23.606Z,81.60
2023-03-12T08:41:48.119Z,78.80
2023-03-12T08:47:11.534Z,80.40
2023-03-12T08:52:34.681Z,74.30
2023-03-12T08:57:59.312Z,77.00
2023-03-12T09:03:22.689Z,76.00
2023-03-12T09:08:47.022Z,74.40
2023-03-12T09:19:54.730Z,72.80
2023-03-12T09:25:17.889Z,71.70
2023-03-12T09:30:43.450Z,68.20
2023-03-12T09:36:07.351Z,72.20
2023-03-12T09:41:35.687Z,72.60
2023-03-12T09:47:07.848Z,70.80
2023-03-12T09:52:45.462Z,75.20
2023-03-12T09:58:27.774Z,69.70
2023-03-12T10:04:24.124Z,69.00
2023-03-12T10:10:25.447Z,74.40
2023-03-12T10:16:04.184Z,64.60
2023-03-12T10:21:35.273Z,69.20
2023-03-12T10:26:59.579Z,71.20
2023-03-12T10:32:29.668Z,68.80
2023-03-12T10:37:57.903Z,65.20
2023-03-12T10:43:20.949Z,58.50
2023-03-12T10:48:44.350Z,71.80
2023-03-12T10:54:23.266Z,62.60
2023-03-12T10:59:48.744Z,58.60
2023-03-12T11:05:23.280Z,55.60
2023-03-12T11:10:48.467Z,62.50
2023-03-12T11:16:27.068Z,68.70
2023-03-12T11:21:58.179Z,67.10
2023-03-12T11:27:37.759Z,58.40
2023-03-12T11:33:02.323Z,54.20
2023-03-12T11:38:36.982Z,58.60
2023-03-12T11:44:25.579Z,59.70
2023-03-12T11:50:28.002Z,65.20
2023-03-12T11:56:10.382Z,60.80
2023-03-12T12:01:52.436Z,52.30
2023-03-12T12:07:30.237Z,61.40
2023-03-12T12:13:09.250Z,66.80
2023-03-12T12:19:04.504Z,56.90
2023-03-12T12:24:51.331Z,66.80
2023-03-12T12:30:25.929Z,65.60
2023-03-12T12:35:50.871Z,58.40
2023-03-12T12:41:19.200Z,61.90
2023-03-12T12:46:46.877Z,60.60
2023-03-12T12:52:15.545Z,65.00
2023-03-12T12:57:45.279Z,62.40
2023-03-12T13:03:16.122Z,63.60
2023-03-12T13:09:14.372Z,60.40
2023-03-12T13:14:41.054Z,58.10
2023-03-12T13:20:16.283Z,64.50
2023-03-12T13:26:01.274Z,62.70
2023-03-12T13:31:39.465Z,63.10
2023-03-12T13:37:03.789Z,60.70
2023-03-12T13:42:38.884Z,61.40
2023-03-12T13:48:05.457Z,61.80
2023-03-12T13:53:39.977Z,62.70
2023-03-12T13:59:13.789Z,56.00
2023-03-12T14:04:41.497Z,62.60
2023-03-12T14:10:22.536Z,66.20
2023-03-12T14:15:55.190Z,65.30
2023-03-12T14:21:19.980Z,61.00
2023-03-12T14:26:46.631Z,65.40
2023-03-12T14:32:19.062Z,66.00
2023-03-12T14:37:47.844Z,62.20
2023-03-12T14:43:24.441Z,62.60
2023-03-12T14:48:52.810Z,64.40
2023-03-12T14:54:21.346Z,63.80
2023-03-12T14:59:54.126Z,62.60
2023-03-12T15:05:20.702Z,66.00
2023-03-12T15:10:51.812Z,67.10
2023-03-12T15:16:15.503Z,68.50
2023-03-12T15:21:40.377Z,67.10
2023-03-12T15:27:34.498Z,68.30
2023-03-12T15:33:12.880Z,67.20
2023-03-12T15:38:44.192Z,69.10
2023-03-12T15:44:14.991Z,67.90
2023-03-12T15:49:40.282Z,65.10
2023-03-12T15:55:21.627Z,68.70
2023-03-12T16:00:45.925Z,69.60
2023-03-12T16:06:13.362Z,68.00
2023-03-12T16:11:38.142Z,70.60
2023-03-12T16:17:02.339Z,71.90
2023-03-12T16:22:25.519Z,71.60
2023-03-12T16:27:53.890Z,70.70
2023-03-12T16:33:20.469Z,70.10
2023-03-12T16:38:44.585Z,70.70
2023-03-12T16:44:17.534Z,72.30
2023-03-12T16:49:41.119Z,72.00
2023-03-12T16:55:04.542Z,72.10
2023-03-12T17:00:32.887Z,71.20
2023-03-12T17:05:56.526Z,71.90
2023-03-12T17:11:23.755Z,72.40
2023-03-12T17:16:48.504Z,73.50
2023-03-12T17:22:11.621Z,72.10
2023-03-12T17:27:34.690Z,72.20
2023-03-12T17:33:05.697Z,72.80
2023-03-12T17:38:30.122Z,72.90
2023-03-12T17:43:53.535Z,72.40
2023-03-12T17:49:18.109Z,71.80
2023-03-12T17:54:41.469Z,73.30
2023-03-12T18:00:06.693Z,73.60
2023-03-12T18:05:39.242Z,73.40
2023-03-12T18:11:02.745Z,73.20
2023-03-12T18:16:26.049Z,73.70
2023-03-12T18:21:50.839Z,73.40
2023-03-12T18:27:14.130Z,74.40
2023-03-12T18:32:37.560Z,74.50
2023-03-12T18:38:02.253Z,74.10
2023-03-12T18:43:25.506Z,75.40
2023-03-12T18:48:48.681Z,74.70
2023-03-12T18:54:13.384Z,74.60
2023-03-12T18:59:36.571Z,74.40
2023-03-12T19:04:59.833Z,74.50
2023-03-12T19:10:24.986Z,74.90
2023-03-12T19:15:48.397Z,75.20
2023-03-12T19:21:11.514Z,74.80
2023-03-12T19:26:36.223Z,74.30
2023-03-12T19:31:59.529Z,75.00
2023-03-12T19:37:22.671Z,76.00
2023-03-12T19:42:47.124Z,75.30
2023-03-12T19:48:11.449Z,75.10
2023-03-12T19:53:35.339Z,75.60
2023-03-12T19:59:00.360Z,75.50
2023-03-12T20:04:23.605Z,75.80
2023-03-12T20:09:46.838Z,76.80
2023-03-12T20:15:14.463Z,75.50
2023-03-12T20:20:37.754Z,75.60
2023-03-12T20:26:01.041Z,75.90
2023-03-12T20:31:25.819Z,75.00
2023-03-12T20:36:49.691Z,77.20
2023-03-12T20:42:12.755Z,77.00
2023-03-12T20:47:37.371Z,76.80
2023-03-12T20:53:00.527Z,77.50
2023-03-12T20:58:23.514Z,77.30
2023-03-12T21:03:49.570Z,77.00
2023-03-12T21:09:12.746Z,78.40
2023-03-12T21:14:36.040Z,77.50
2023-03-12T21:20:01.488Z,78.20
2023-03-12T21:25:25.113Z,78.10
2023-03-12T21:30:48.456Z,78.50
2023-03-12T21:36:14.945Z,78.80
2023-03-12T21:41:38.480Z,78.70
2023-03-12T21:47:01.790Z,79.90
2023-03-12T21:52:26.951Z,78.60
2023-03-12T21:57:50.092Z,79.50
2023-03-12T22:03:13.462Z,79.60
2023-03-12T22:08:39.011Z,80.30
2023-03-12T22:14:02.132Z,80.50
2023-03-12T22:19:25.461Z,79.70
2023-03-12T22:24:50.092Z,78.90
2023-03-12T22:30:14.093Z,79.60
2023-03-12T22:35:44.320Z,78.70
2023-03-12T22:41:21.412Z,79.90
2023-03-12T22:46:44.812Z,79.30
2023-03-12T22:52:08.079Z,78.20
2023-03-12T22:57:33.963Z,78.10
2023-03-12T23:02:57.145Z,78.20
2023-03-12T23:08:20.368Z,78.10
2023-03-12T23:13:46.729Z,79.10
2023-03-12T23:19:09.711Z,79.60
2023-03-12T23:24:32.784Z,78.80
2023-03-12T23:29:57.341Z,79.60
2023-03-12T23:35:20.798Z,79.50
2023-03-12T23:40:45.173Z,79.50
2023-03-12T23:46:11.602Z,80.00
2023-03-12T23:51:34.888Z,79.00
2023-03-12T23:56:57.900Z,78.60
